Country
Station

 

Weather  for  Villahermosa  -  Mexico    Mexico

  
27 °C (81 °F)
    
 
 

Current METAR for Villahermosa is :

MMVA 211743Z 06009KT 7SM SCT015 27/20 A2998 RMK SLP149 57017 984 8/100 PRES FR HZY MSGTX MMM

 

This is a report for Villahermosa - Mexico.
 
The report was made 25 minutes ago, at 17:43 UTC .
The wind was blowing at a speed of 4.6 meters per second (10.4 miles per hour) from east/northeast (060°).
 
The temperature was 27 °C (81 °F), with a dew-point at 20 °C (68 °F).
The temperature felt like 29 °C (84 °F).
 
The atmospheric pressure was 1015 hPa (29.98 inHg).
The relative humidity was 65.6%.
 
There were scattered clouds at a height of 457 meters (1500 feet).
 
The overall visibility was 11.3 kilometers (7.0 miles).
 

 
 
 
 

Country :   A   B   C   D   E   F   G   H   I   J   K   L   M   N   O   P   Q   R   S   T   U   V   W   Y   Z

 

Site Info  |  Disclaimer  |  Credits  |  Privacy
Contact us  |  Add to favorites
© 2013-2018 METARs - All rights reserved